Time;durP1;ratioP1;P1;durP2;ratioP2;P2;SDS_P1;SDS_P2;PMS_P1;PMS_P2;Temp;Humidity;BMP_temperature;BMP_pressure;BME280_temperature;BME280_humidity;BME280_pressure;Samples;Min_cycle;Max_cycle;Signal;HPM_P1;HPM_P2
2023/03/28 00:00:47;;;;;;;4.38;0.30;;;4.00;98.10;;;;;;5033157;28;20799;-65
2023/03/28 00:03:17;;;;;;;1.02;0.55;;;3.90;98.30;;;;;;5034926;28;20044;-65
2023/03/28 00:05:47;;;;;;;2.22;0.28;;;3.90;98.50;;;;;;5033284;28;20052;-65
2023/03/28 00:08:14;;;;;;;2.00;0.30;;;3.90;98.90;;;;;;5031660;28;20256;-65
2023/03/28 00:10:40;;;;;;;0.55;0.20;;;3.80;98.90;;;;;;5038211;28;20489;-65
2023/03/28 00:13:05;;;;;;;2.08;0.32;;;3.90;99.00;;;;;;5029669;28;20068;-65
2023/03/28 00:15:31;;;;;;;2.38;0.30;;;3.80;99.20;;;;;;5032793;28;20029;-65
2023/03/28 00:18:00;;;;;;;3.72;0.68;;;3.80;99.70;;;;;;5038793;28;20068;-65
2023/03/28 00:20:28;;;;;;;3.97;0.57;;;3.80;99.80;;;;;;5036050;28;20146;-65
2023/03/28 00:22:54;;;;;;;0.35;0.30;;;3.80;99.80;;;;;;5039507;28;20047;-65
2023/03/28 00:25:20;;;;;;;2.08;0.47;;;3.90;99.90;;;;;;5039955;28;20037;-65
2023/03/28 00:27:46;;;;;;;1.67;0.40;;;3.80;99.80;;;;;;5040002;28;20044;-65
2023/03/28 00:30:12;;;;;;;0.40;0.28;;;3.80;99.70;;;;;;5030948;28;20451;-65
2023/03/28 00:32:37;;;;;;;3.70;0.68;;;3.80;99.80;;;;;;5039346;28;20041;-65
2023/03/28 00:35:04;;;;;;;4.97;0.70;;;3.90;99.90;;;;;;5037270;28;20171;-65
2023/03/28 00:37:30;;;;;;;1.70;0.60;;;3.80;99.90;;;;;;5037848;28;20039;-65
2023/03/28 00:39:58;;;;;;;1.85;0.73;;;3.90;99.90;;;;;;5030318;28;20034;-65
2023/03/28 00:42:24;;;;;;;2.33;0.50;;;3.90;99.90;;;;;;5036707;28;20032;-65
2023/03/28 00:44:56;;;;;;;3.78;0.82;;;4.00;99.90;;;;;;5039560;28;20116;-65
2023/03/28 00:47:48;;;;;;;1.52;0.47;;;4.00;99.90;;;;;;5034715;28;20033;-65
2023/03/28 00:50:36;;;;;;;1.70;0.52;;;4.00;99.90;;;;;;5024644;28;20378;-65
2023/03/28 00:53:10;;;;;;;2.80;0.43;;;4.10;99.90;;;;;;5037987;28;20420;-65
2023/03/28 00:55:42;;;;;;;1.55;0.50;;;4.10;99.90;;;;;;5040241;28;20132;-65
2023/03/28 00:58:17;;;;;;;2.90;0.50;;;4.10;99.90;;;;;;5039815;28;20033;-65
2023/03/28 01:00:46;;;;;;;2.60;0.60;;;4.20;99.90;;;;;;5029383;28;20043;-65
2023/03/28 01:03:17;;;;;;;0.90;0.40;;;4.30;99.90;;;;;;5051374;28;20044;-65
2023/03/28 01:05:46;;;;;;;3.67;0.70;;;4.30;99.90;;;;;;5029422;28;20032;-65
2023/03/28 01:08:23;;;;;;;2.90;0.60;;;4.40;99.90;;;;;;5028760;28;20041;-66
2023/03/28 01:10:49;;;;;;;;;;;4.40;99.90;;;;;;5044112;28;20029;-65
2023/03/28 01:13:18;;;;;;;0.63;0.40;;;4.50;99.90;;;;;;5038778;28;20369;-66
2023/03/28 01:15:48;;;;;;;1.02;0.28;;;4.50;99.90;;;;;;5041670;28;20528;-66
2023/03/28 01:18:15;;;;;;;1.80;0.60;;;4.40;99.90;;;;;;5036663;28;20513;-65
2023/03/28 01:21:05;;;;;;;3.42;0.60;;;4.30;99.90;;;;;;5038021;28;20049;-65
2023/03/28 01:23:31;;;;;;;2.20;0.60;;;4.40;99.90;;;;;;5040800;28;20051;-65
2023/03/28 01:26:28;;;;;;;1.80;0.50;;;4.40;99.90;;;;;;5039594;28;20136;-65
2023/03/28 01:29:31;;;;;;;2.35;0.88;;;4.30;99.90;;;;;;5038228;28;20771;-66
2023/03/28 01:32:25;;;;;;;4.00;0.70;;;4.20;99.90;;;;;;5037620;28;20025;-65
2023/03/28 01:35:26;;;;;;;0.73;0.60;;;4.10;99.90;;;;;;5044433;28;20058;-65
2023/03/28 01:38:11;;;;;;;3.88;0.60;;;4.10;99.90;;;;;;4996755;28;20037;-65
2023/03/28 01:41:04;;;;;;;5.45;0.90;;;4.00;99.90;;;;;;5040017;28;20029;-66
2023/03/28 01:43:36;;;;;;;5.57;0.70;;;4.00;99.90;;;;;;5047266;28;20869;-65
2023/03/28 01:46:39;;;;;;;5.75;0.75;;;4.00;99.90;;;;;;5036975;28;20115;-66
2023/03/28 01:49:15;;;;;;;4.30;0.82;;;4.10;99.90;;;;;;5037744;28;20501;-65
2023/03/28 01:51:57;;;;;;;5.03;1.50;;;4.20;99.90;;;;;;5042787;28;20571;-65
2023/03/28 01:54:28;;;;;;;5.60;0.75;;;4.20;99.90;;;;;;5036167;28;20029;-65
2023/03/28 01:57:00;;;;;;;5.05;0.90;;;4.20;99.90;;;;;;5040253;28;20030;-65
2023/03/28 01:59:38;;;;;;;4.57;1.33;;;4.20;99.90;;;;;;5034388;28;20857;-65
2023/03/28 02:02:48;;;;;;;4.50;0.85;;;4.20;99.90;;;;;;5013743;28;20049;-65
2023/03/28 02:05:31;;;;;;;2.35;0.55;;;4.10;99.90;;;;;;5034191;28;20033;-65
2023/03/28 02:08:01;;;;;;;5.50;0.93;;;4.10;99.90;;;;;;5032482;28;20033;-65
2023/03/28 02:10:41;;;;;;;2.08;1.20;;;4.10;99.90;;;;;;5040334;28;20025;-65
2023/03/28 02:13:49;;;;;;;1.52;0.73;;;4.10;99.90;;;;;;4997813;28;20036;-65
2023/03/28 02:16:37;;;;;;;5.93;1.02;;;4.00;99.90;;;;;;5037738;28;20047;-65
2023/03/28 02:19:12;;;;;;;3.33;0.80;;;3.90;99.90;;;;;;5040407;28;20071;-65
2023/03/28 02:22:29;;;;;;;5.70;0.77;;;3.90;99.90;;;;;;5028129;28;20776;-65
2023/03/28 02:24:58;;;;;;;4.15;0.77;;;3.90;99.90;;;;;;5031930;28;20044;-65
2023/03/28 02:27:35;;;;;;;4.22;1.00;;;3.90;99.90;;;;;;5039752;28;20080;-65
2023/03/28 02:30:19;;;;;;;3.17;1.00;;;4.00;99.90;;;;;;5033499;28;20068;-65
2023/03/28 02:32:49;;;;;;;3.35;0.85;;;4.10;99.90;;;;;;5032780;28;20136;-65
2023/03/28 02:35:24;;;;;;;3.60;0.60;;;4.10;99.90;;;;;;5038767;28;20025;-65
2023/03/28 02:37:58;;;;;;;8.13;2.22;;;4.10;99.90;;;;;;5034275;28;20102;-65
2023/03/28 02:40:42;;;;;;;4.20;0.85;;;4.00;99.90;;;;;;5034925;28;20033;-65
2023/03/28 02:43:41;;;;;;;4.53;0.80;;;4.00;99.80;;;;;;5035011;28;20156;-65
2023/03/28 02:46:27;;;;;;;3.55;0.65;;;4.00;99.90;;;;;;5023694;28;20068;-65
2023/03/28 02:49:35;;;;;;;4.10;0.80;;;4.00;99.90;;;;;;5042611;28;20065;-65
2023/03/28 02:52:22;;;;;;;4.45;0.70;;;4.10;99.90;;;;;;5031592;28;20555;-65
2023/03/28 02:55:17;;;;;;;4.03;1.10;;;4.10;99.90;;;;;;5037708;28;20057;-65
2023/03/28 02:58:06;;;;;;;2.50;0.57;;;4.10;99.90;;;;;;5037232;28;20501;-65
2023/03/28 03:00:33;;;;;;;2.33;0.70;;;4.20;99.90;;;;;;5037389;28;20033;-65
2023/03/28 03:03:00;;;;;;;4.32;0.60;;;4.20;99.90;;;;;;5034080;28;20152;-65
2023/03/28 03:05:26;;;;;;;6.50;1.00;;;4.30;99.80;;;;;;5042359;28;20048;-65
2023/03/28 03:07:51;;;;;;;4.63;0.60;;;4.30;99.70;;;;;;5041273;28;20041;-65
2023/03/28 03:10:18;;;;;;;6.72;1.60;;;4.40;99.60;;;;;;5035008;28;20096;-65
2023/03/28 03:12:45;;;;;;;2.35;0.65;;;4.50;99.30;;;;;;5035506;28;20048;-65
2023/03/28 03:15:11;;;;;;;5.03;1.58;;;4.40;98.90;;;;;;5025191;28;20059;-65
2023/03/28 03:17:51;;;;;;;1.55;0.85;;;4.40;98.80;;;;;;5035171;28;20409;-65
2023/03/28 03:20:25;;;;;;;3.67;0.98;;;4.30;98.90;;;;;;5044743;28;20489;-65
2023/03/28 03:22:51;;;;;;;4.97;1.23;;;4.20;99.10;;;;;;5046328;28;20039;-65
2023/03/28 03:25:18;;;;;;;1.10;0.47;;;4.20;99.10;;;;;;5047746;28;20029;-66
2023/03/28 03:27:54;;;;;;;3.63;0.60;;;4.20;99.30;;;;;;5041298;28;20030;-65
2023/03/28 03:30:19;;;;;;;3.15;0.65;;;4.20;98.90;;;;;;5040791;28;20037;-65
2023/03/28 03:33:04;;;;;;;3.75;0.60;;;4.00;98.70;;;;;;5033245;28;20063;-65
2023/03/28 03:35:32;;;;;;;7.00;0.93;;;4.00;99.10;;;;;;5042199;28;20692;-65
2023/03/28 03:38:03;;;;;;;2.90;0.80;;;3.90;99.40;;;;;;5035094;28;20409;-67
2023/03/28 03:40:29;;;;;;;9.40;0.85;;;3.80;99.40;;;;;;5038483;28;20033;-64
2023/03/28 03:42:55;;;;;;;4.75;0.63;;;3.70;99.80;;;;;;5034934;28;20022;-66
2023/03/28 03:45:21;;;;;;;5.20;0.98;;;3.70;99.90;;;;;;5039505;28;20039;-65
2023/03/28 03:47:47;;;;;;;9.43;0.93;;;3.70;99.90;;;;;;5041196;28;20035;-65
2023/03/28 03:50:13;;;;;;;3.13;0.80;;;3.70;99.90;;;;;;5037998;28;20033;-65
2023/03/28 03:52:39;;;;;;;5.30;1.20;;;3.60;99.90;;;;;;5034185;28;20047;-65
2023/03/28 03:55:06;;;;;;;3.53;1.38;;;3.60;99.90;;;;;;5032504;28;20029;-65
2023/03/28 03:57:36;;;;;;;6.20;1.25;;;3.50;99.90;;;;;;5044894;28;20029;-65
2023/03/28 04:00:10;;;;;;;4.45;1.30;;;3.50;99.90;;;;;;5038455;28;20604;-65
2023/03/28 04:02:45;;;;;;;4.53;1.00;;;3.50;99.90;;;;;;5038791;28;20056;-65
2023/03/28 04:05:15;;;;;;;1.98;1.10;;;3.50;99.90;;;;;;5034265;28;20545;-64
2023/03/28 04:07:59;;;;;;;2.35;0.50;;;3.40;99.90;;;;;;5036552;28;20033;-64
2023/03/28 04:10:33;;;;;;;4.68;0.68;;;3.30;99.90;;;;;;5032316;28;20098;-65
2023/03/28 04:12:59;;;;;;;5.22;1.08;;;3.30;99.90;;;;;;5037846;28;20032;-64
2023/03/28 04:15:25;;;;;;;2.05;0.35;;;3.30;99.90;;;;;;5043332;28;20477;-64
2023/03/28 04:18:03;;;;;;;2.40;0.55;;;3.30;99.90;;;;;;5035438;28;20060;-64
2023/03/28 04:20:34;;;;;;;6.05;0.70;;;3.20;99.90;;;;;;5046441;28;20144;-65
2023/03/28 04:23:08;;;;;;;1.75;0.80;;;3.20;99.90;;;;;;5022259;28;20794;-64
2023/03/28 04:25:35;;;;;;;4.57;0.70;;;3.20;99.90;;;;;;5034378;28;20068;-65
2023/03/28 04:28:10;;;;;;;1.38;0.60;;;3.20;99.90;;;;;;5031941;28;20040;-64
2023/03/28 04:30:44;;;;;;;4.03;1.15;;;3.10;99.90;;;;;;5037704;28;20902;-65
2023/03/28 04:33:32;;;;;;;6.03;1.38;;;3.10;99.90;;;;;;5041154;28;20045;-65
2023/03/28 04:36:00;;;;;;;6.65;0.70;;;3.20;99.90;;;;;;5037406;28;20031;-65
2023/03/28 04:38:35;;;;;;;1.98;0.40;;;3.10;99.90;;;;;;5038999;28;20561;-65
2023/03/28 04:41:16;;;;;;;5.45;1.02;;;3.10;99.90;;;;;;5042446;28;20044;-65
2023/03/28 04:43:57;;;;;;;6.15;0.70;;;3.00;99.90;;;;;;5043055;28;20059;-65
2023/03/28 04:46:23;;;;;;;1.38;0.75;;;3.00;99.90;;;;;;5016619;28;20033;-65
2023/03/28 04:48:49;;;;;;;4.65;0.75;;;2.90;99.90;;;;;;5039072;28;20028;-65
2023/03/28 04:51:23;;;;;;;5.88;1.25;;;3.00;99.90;;;;;;5038592;28;20130;-65
2023/03/28 04:53:49;;;;;;;2.05;0.50;;;3.00;99.90;;;;;;5043868;28;20729;-65
2023/03/28 04:56:33;;;;;;;4.13;0.88;;;3.00;99.90;;;;;;5033832;28;20135;-65
2023/03/28 04:58:59;;;;;;;2.88;0.73;;;2.90;99.90;;;;;;5045636;28;20064;-65
2023/03/28 05:01:27;;;;;;;3.55;0.75;;;2.90;99.90;;;;;;5024502;28;20037;-65
2023/03/28 05:04:11;;;;;;;2.17;0.73;;;2.90;99.90;;;;;;5036818;28;20153;-65
2023/03/28 05:06:37;;;;;;;1.17;0.52;;;2.80;99.90;;;;;;5031906;28;20075;-65
2023/03/28 05:09:03;;;;;;;2.25;0.77;;;2.80;99.90;;;;;;5041274;28;20041;-64
2023/03/28 05:11:30;;;;;;;5.13;1.38;;;2.80;99.90;;;;;;5047219;28;20132;-64
2023/03/28 05:13:56;;;;;;;3.70;0.60;;;2.80;99.90;;;;;;5043000;28;20029;-65
2023/03/28 05:16:37;;;;;;;3.75;1.10;;;2.80;99.90;;;;;;5047489;28;20031;-65
2023/03/28 05:19:26;;;;;;;3.65;1.00;;;2.80;99.90;;;;;;5040502;28;20116;-65
2023/03/28 05:22:02;;;;;;;2.40;0.98;;;2.80;99.90;;;;;;5030331;28;20029;-65
2023/03/28 05:24:29;;;;;;;4.72;0.90;;;2.70;99.90;;;;;;5041477;28;20035;-65
2023/03/28 05:26:55;;;;;;;3.35;0.65;;;2.70;99.90;;;;;;5045342;28;20028;-65
2023/03/28 05:29:22;;;;;;;2.58;0.82;;;2.70;99.90;;;;;;5051230;28;20025;-65
2023/03/28 05:31:49;;;;;;;2.28;0.80;;;2.70;99.90;;;;;;5041359;28;20568;-65
2023/03/28 05:34:21;;;;;;;4.10;0.82;;;2.70;99.90;;;;;;5042609;28;20846;-64
2023/03/28 05:36:48;;;;;;;5.63;0.77;;;2.80;99.90;;;;;;5039372;28;20045;-65
2023/03/28 05:39:37;;;;;;;4.75;1.35;;;2.70;99.90;;;;;;5046174;28;20041;-65
2023/03/28 05:42:04;;;;;;;2.75;1.08;;;2.80;99.90;;;;;;5044587;28;20025;-65
2023/03/28 05:44:33;;;;;;;1.35;0.65;;;2.80;99.90;;;;;;5050276;28;20041;-65
2023/03/28 05:47:11;;;;;;;2.28;1.52;;;2.80;99.90;;;;;;5041715;28;20079;-65
2023/03/28 05:49:36;;;;;;;3.90;1.08;;;2.80;99.90;;;;;;5041188;28;20140;-65
2023/03/28 05:52:02;;;;;;;5.05;0.93;;;2.90;99.90;;;;;;5041668;28;20038;-65
2023/03/28 05:54:28;;;;;;;3.75;1.08;;;2.90;99.90;;;;;;5027115;28;20091;-65
2023/03/28 05:56:54;;;;;;;3.75;1.40;;;2.90;99.90;;;;;;5045101;28;20056;-65
2023/03/28 05:59:24;;;;;;;7.05;1.15;;;3.00;99.90;;;;;;5039235;28;20032;-65
2023/03/28 06:01:51;;;;;;;4.05;1.00;;;3.00;99.90;;;;;;5038130;28;20152;-65
2023/03/28 06:04:21;;;;;;;4.65;0.95;;;3.20;99.90;;;;;;5040399;28;20033;-65
2023/03/28 06:06:50;;;;;;;2.60;0.95;;;3.20;99.90;;;;;;5041184;28;20499;-65
2023/03/28 06:09:22;;;;;;;2.67;0.77;;;3.20;99.90;;;;;;5056315;28;20104;-65
2023/03/28 06:11:58;;;;;;;1.50;0.65;;;3.30;99.90;;;;;;5040833;28;20135;-65
2023/03/28 06:14:24;;;;;;;4.57;0.90;;;3.30;99.90;;;;;;5046433;28;20129;-65
2023/03/28 06:16:52;;;;;;;7.15;0.90;;;3.40;99.90;;;;;;5048156;28;20072;-65
2023/03/28 06:19:19;;;;;;;4.20;1.08;;;3.50;99.90;;;;;;5044323;28;20828;-65
2023/03/28 06:21:51;;;;;;;4.53;0.98;;;3.50;99.90;;;;;;5054296;28;20028;-64
2023/03/28 06:24:17;;;;;;;1.67;1.45;;;3.50;99.90;;;;;;5048231;28;20100;-64
2023/03/28 06:26:44;;;;;;;2.45;0.63;;;3.60;99.90;;;;;;5037186;28;20057;-65
2023/03/28 06:29:14;;;;;;;3.33;0.82;;;3.60;99.90;;;;;;5037059;28;20062;-65
2023/03/28 06:31:42;;;;;;;4.70;2.00;;;3.70;99.90;;;;;;5042396;28;20752;-65
2023/03/28 06:34:07;;;;;;;4.95;2.95;;;3.70;99.70;;;;;;5037656;28;20105;-65
2023/03/28 06:36:42;;;;;;;5.50;2.33;;;3.80;99.60;;;;;;5035642;28;20505;-65
2023/03/28 06:39:09;;;;;;;2.50;1.40;;;3.80;99.30;;;;;;5045867;28;20032;-65
2023/03/28 06:41:35;;;;;;;7.30;3.80;;;3.90;99.50;;;;;;5042664;28;20033;-65
2023/03/28 06:44:02;;;;;;;3.20;1.50;;;4.00;99.20;;;;;;5047671;28;20041;-65
2023/03/28 06:47:01;;;;;;;2.83;0.95;;;4.10;98.70;;;;;;5040793;28;20033;-65
2023/03/28 06:49:28;;;;;;;2.03;1.00;;;4.10;98.50;;;;;;5043271;28;20056;-65
2023/03/28 06:52:29;;;;;;;6.38;0.90;;;4.20;98.50;;;;;;4995226;28;20423;-65
2023/03/28 06:54:57;;;;;;;5.82;1.05;;;4.30;98.20;;;;;;5025492;28;20183;-65
2023/03/28 06:57:24;;;;;;;2.38;1.15;;;4.30;97.70;;;;;;5037072;28;20033;-66
2023/03/28 06:59:56;;;;;;;6.55;1.60;;;4.50;97.90;;;;;;5040754;28;20453;-65
2023/03/28 07:02:32;;;;;;;1.88;1.27;;;4.80;97.40;;;;;;5047858;28;20331;-65
2023/03/28 07:05:03;;;;;;;6.40;1.17;;;5.50;96.10;;;;;;5025723;28;20037;-65
2023/03/28 07:07:29;;;;;;;1.33;0.70;;;6.40;94.40;;;;;;5041349;28;20098;-66
2023/03/28 07:09:55;;;;;;;3.50;1.00;;;7.40;91.30;;;;;;5042195;28;20029;-65
2023/03/28 07:12:21;;;;;;;1.40;0.65;;;8.40;88.00;;;;;;5038592;28;20041;-65
2023/03/28 07:14:47;;;;;;;2.85;0.75;;;9.20;81.30;;;;;;5040018;28;20408;-65
2023/03/28 07:17:13;;;;;;;2.58;0.85;;;9.80;77.20;;;;;;5031799;28;20033;-66
2023/03/28 07:19:39;;;;;;;0.95;0.47;;;10.20;74.10;;;;;;5040499;28;20032;-65
2023/03/28 07:22:05;;;;;;;3.28;1.20;;;10.30;71.60;;;;;;5039661;28;20770;-66
2023/03/28 07:24:34;;;;;;;1.92;0.98;;;10.20;70.60;;;;;;5039631;28;20133;-65
2023/03/28 07:27:04;;;;;;;2.30;0.90;;;9.90;71.10;;;;;;5040536;28;20152;-65
2023/03/28 07:29:30;;;;;;;3.45;0.98;;;9.70;70.20;;;;;;5050341;28;20025;-66
2023/03/28 07:31:56;;;;;;;1.63;0.75;;;9.70;69.90;;;;;;5043092;28;20323;-66
2023/03/28 07:34:24;;;;;;;6.25;1.42;;;9.90;68.60;;;;;;5054835;28;20024;-66
2023/03/28 07:36:50;;;;;;;1.42;1.00;;;10.10;67.90;;;;;;5046931;28;20023;-66
2023/03/28 07:39:31;;;;;;;3.00;0.90;;;10.20;68.20;;;;;;5038291;28;20021;-66
2023/03/28 07:42:00;;;;;;;2.60;0.90;;;10.30;67.20;;;;;;5036762;28;20032;-66
2023/03/28 07:44:25;;;;;;;3.33;0.85;;;10.60;68.30;;;;;;5038183;28;20029;-66
2023/03/28 07:46:51;;;;;;;5.13;0.98;;;10.50;66.70;;;;;;5042260;28;20025;-66
2023/03/28 07:49:19;;;;;;;1.85;0.52;;;10.50;67.60;;;;;;5043243;28;20140;-66
2023/03/28 07:51:46;;;;;;;2.92;0.75;;;10.90;66.60;;;;;;5042062;28;20528;-66
2023/03/28 07:54:16;;;;;;;1.38;0.60;;;11.50;63.20;;;;;;5040701;28;20033;-66
2023/03/28 07:56:47;;;;;;;1.63;0.77;;;12.30;62.00;;;;;;5039264;28;20029;-66
2023/03/28 07:59:24;;;;;;;1.20;0.47;;;13.10;58.60;;;;;;5039603;28;20038;-66
2023/03/28 08:01:52;;;;;;;2.75;0.45;;;13.70;54.30;;;;;;5047846;28;20489;-66
2023/03/28 08:04:18;;;;;;;3.33;0.93;;;14.10;53.30;;;;;;5039431;28;20029;-66
2023/03/28 08:07:06;;;;;;;2.85;0.60;;;14.30;52.70;;;;;;5042445;28;20036;-66
2023/03/28 08:09:32;;;;;;;2.00;0.63;;;14.20;51.30;;;;;;5049683;28;20398;-66
2023/03/28 08:12:20;;;;;;;1.35;0.40;;;14.20;52.00;;;;;;5036428;28;20041;-66
2023/03/28 08:14:47;;;;;;;3.05;0.80;;;14.10;53.30;;;;;;5038342;28;20444;-66
2023/03/28 08:17:14;;;;;;;2.35;0.63;;;13.90;51.50;;;;;;5039125;28;20032;-67
2023/03/28 08:19:40;;;;;;;3.63;0.90;;;13.70;53.10;;;;;;5036456;28;20025;-66
2023/03/28 08:22:12;;;;;;;3.00;0.85;;;13.70;52.90;;;;;;5040892;28;20101;-66
2023/03/28 08:24:55;;;;;;;1.38;0.70;;;13.20;50.30;;;;;;5047557;28;20014;-66
2023/03/28 08:27:23;;;;;;;2.63;0.80;;;12.80;54.20;;;;;;5031710;28;20102;-66
2023/03/28 08:29:54;;;;;;;2.25;0.82;;;12.60;55.50;;;;;;5046209;28;20030;-66
2023/03/28 08:32:20;;;;;;;2.75;0.85;;;12.30;56.10;;;;;;5051716;28;20055;-66
2023/03/28 08:34:46;;;;;;;2.30;0.73;;;12.10;53.70;;;;;;5033421;28;20140;-66
2023/03/28 08:37:18;;;;;;;1.80;0.65;;;12.10;55.90;;;;;;5042066;28;20025;-65
2023/03/28 08:39:47;;;;;;;2.03;0.60;;;12.10;55.40;;;;;;5039694;28;20095;-66
2023/03/28 08:42:38;;;;;;;1.08;0.60;;;11.90;56.50;;;;;;5042232;28;20043;-65
2023/03/28 08:45:44;;;;;;;1.52;0.88;;;11.70;56.20;;;;;;5042376;28;20084;-66
2023/03/28 08:48:10;;;;;;;1.55;0.70;;;11.50;56.80;;;;;;5041008;28;20029;-65
2023/03/28 08:50:42;;;;;;;1.60;0.70;;;11.60;57.00;;;;;;5040731;28;20025;-66
2023/03/28 08:53:41;;;;;;;1.58;0.88;;;11.60;56.20;;;;;;5035186;28;20856;-65
2023/03/28 08:56:07;;;;;;;2.08;0.60;;;11.80;56.80;;;;;;5028511;28;20033;-64
2023/03/28 08:58:50;;;;;;;1.65;0.70;;;11.90;55.80;;;;;;5034888;28;20560;-66
2023/03/28 09:01:20;;;;;;;1.83;1.05;;;11.90;54.10;;;;;;5022380;28;20051;-66
2023/03/28 09:03:48;;;;;;;2.72;0.77;;;12.00;55.50;;;;;;5039307;28;20064;-66
2023/03/28 09:06:29;;;;;;;2.15;0.50;;;12.20;54.90;;;;;;5037993;28;20037;-66
2023/03/28 09:09:09;;;;;;;1.60;0.80;;;12.40;52.60;;;;;;5038440;28;20109;-66
2023/03/28 09:12:24;;;;;;;4.75;0.40;;;12.70;53.50;;;;;;5035809;28;20083;-66
2023/03/28 09:15:23;;;;;;;1.35;0.57;;;13.20;50.50;;;;;;5043082;28;20031;-66
2023/03/28 09:17:59;;;;;;;0.75;0.70;;;13.70;49.40;;;;;;5036624;28;20036;-66
2023/03/28 09:20:38;;;;;;;3.55;0.73;;;13.50;49.80;;;;;;5037699;28;20659;-65
2023/03/28 09:23:20;;;;;;;1.73;0.50;;;13.10;47.90;;;;;;5052898;28;20025;-66
2023/03/28 09:26:16;;;;;;;2.55;0.50;;;13.30;51.10;;;;;;5044819;28;20033;-65
2023/03/28 09:28:56;;;;;;;4.72;0.80;;;13.30;50.40;;;;;;5034689;28;20064;-66
2023/03/28 09:31:44;;;;;;;1.52;0.63;;;13.20;51.40;;;;;;5044120;28;20020;-66
2023/03/28 09:34:21;;;;;;;2.85;0.70;;;13.10;52.20;;;;;;5037704;28;20031;-66
2023/03/28 09:36:52;;;;;;;1.70;0.50;;;12.80;50.30;;;;;;5032918;28;20045;-66
2023/03/28 09:39:44;;;;;;;1.55;0.47;;;12.40;52.90;;;;;;5036809;28;20025;-67
2023/03/28 09:42:28;;;;;;;3.10;0.90;;;12.20;52.90;;;;;;5057905;28;20047;-67
2023/03/28 09:45:38;;;;;;;3.13;0.70;;;11.90;52.50;;;;;;5038257;28;20029;-66
2023/03/28 09:48:37;;;;;;;1.40;0.45;;;11.90;54.40;;;;;;5033472;28;20480;-66
2023/03/28 09:51:13;;;;;;;1.35;0.70;;;11.70;51.80;;;;;;5035940;28;20083;-66
2023/03/28 09:53:41;;;;;;;2.38;0.75;;;11.70;54.20;;;;;;5042281;28;20929;-67
2023/03/28 09:56:27;;;;;;;1.08;0.40;;;11.90;53.70;;;;;;5040054;28;20036;-66
2023/03/28 09:59:00;;;;;;;0.50;0.20;;;12.10;52.20;;;;;;5055607;28;20119;-66
2023/03/28 10:01:43;;;;;;;0.38;0.22;;;12.30;48.00;;;;;;5040390;28;20144;-66
2023/03/28 10:04:36;;;;;;;2.35;1.10;;;12.00;46.50;;;;;;5046371;28;20147;-67
2023/03/28 10:07:43;;;;;;;0.85;0.75;;;11.60;49.90;;;;;;5033177;28;20041;-66
2023/03/28 10:10:21;;;;;;;4.93;4.43;;;11.30;49.70;;;;;;5045278;28;20025;-68
2023/03/28 10:12:56;;;;;;;4.55;1.10;;;11.10;48.50;;;;;;5043573;28;20157;-65
2023/03/28 10:15:31;;;;;;;1.25;1.20;;;10.90;47.20;;;;;;5047515;28;20214;-66
2023/03/28 10:18:26;;;;;;;0.47;0.47;;;10.90;46.70;;;;;;5042671;28;20037;-66
2023/03/28 10:21:17;;;;;;;2.17;0.60;;;11.00;48.00;;;;;;5050523;28;20401;-66
2023/03/28 10:23:57;;;;;;;3.13;1.45;;;11.60;45.00;;;;;;5039072;28;20320;-66
2023/03/28 10:26:25;;;;;;;1.85;1.75;;;12.10;46.40;;;;;;5039256;28;20168;-66
2023/03/28 10:28:54;;;;;;;20.55;18.70;;;12.80;44.70;;;;;;5041531;28;20037;-66
2023/03/28 10:31:28;;;;;;;2.38;2.00;;;13.70;43.00;;;;;;5035214;28;20072;-66
2023/03/28 10:34:01;;;;;;;1.85;1.30;;;14.10;42.80;;;;;;5035346;28;20025;-67
2023/03/28 10:36:46;;;;;;;4.25;2.83;;;14.90;43.50;;;;;;5037135;28;20607;-66
2023/03/28 10:39:25;;;;;;;7.45;3.67;;;15.60;41.80;;;;;;5040664;28;20059;-66
2023/03/28 10:42:10;;;;;;;1.95;0.73;;;15.40;39.10;;;;;;5043332;28;21717;-66
2023/03/28 10:45:00;;;;;;;2.00;0.80;;;15.30;39.60;;;;;;5040552;28;20043;-66
2023/03/28 10:47:29;;;;;;;2.75;1.10;;;15.20;39.00;;;;;;5046268;28;20063;-67
2023/03/28 10:50:02;;;;;;;3.95;1.83;;;15.30;41.10;;;;;;5048455;28;20025;-66
2023/03/28 10:52:48;;;;;;;2.42;1.27;;;15.30;40.20;;;;;;5039013;28;20024;-66
2023/03/28 10:55:28;;;;;;;5.80;2.80;;;15.60;40.80;;;;;;5036269;28;20075;-66
2023/03/28 10:58:29;;;;;;;3.40;1.50;;;16.40;39.50;;;;;;5039299;28;20041;-66
2023/03/28 11:01:23;;;;;;;2.63;1.25;;;17.40;39.30;;;;;;5044451;28;20040;-66
2023/03/28 11:04:34;;;;;;;1.75;1.20;;;17.30;36.70;;;;;;5035938;28;20040;-65
2023/03/28 11:07:06;;;;;;;2.72;0.70;;;17.00;38.40;;;;;;5042502;28;20029;-66
2023/03/28 11:10:19;;;;;;;4.00;1.67;;;16.90;38.90;;;;;;5037531;28;20029;-66
2023/03/28 11:13:31;;;;;;;4.05;1.55;;;16.90;38.00;;;;;;5040022;28;20029;-66
2023/03/28 11:16:13;;;;;;;1.27;0.75;;;15.90;40.20;;;;;;5034412;28;20114;-66
2023/03/28 11:19:21;;;;;;;3.90;1.30;;;15.10;41.30;;;;;;5040941;28;20083;-66
2023/03/28 11:22:13;;;;;;;1.50;0.98;;;14.30;42.70;;;;;;5042090;28;20033;-66
2023/03/28 11:25:13;;;;;;;0.95;0.85;;;13.80;43.80;;;;;;5038037;28;20524;-66
2023/03/28 11:28:29;;;;;;;3.50;1.50;;;13.30;43.20;;;;;;5040072;28;20048;-66
2023/03/28 11:31:04;;;;;;;1.08;0.50;;;12.80;42.30;;;;;;5021450;28;20028;-66
2023/03/28 11:33:57;;;;;;;1.98;0.65;;;12.40;45.00;;;;;;5035807;28;20033;-66
2023/03/28 11:36:50;;;;;;;1.67;0.30;;;12.20;46.30;;;;;;5046999;28;20095;-66
2023/03/28 11:39:25;;;;;;;0.82;0.38;;;12.10;45.40;;;;;;5041282;28;20028;-66
2023/03/28 11:41:54;;;;;;;2.95;1.65;;;12.00;45.60;;;;;;5038819;28;20033;-66
2023/03/28 11:44:36;;;;;;;6.38;3.65;;;11.80;46.40;;;;;;5044250;28;20068;-66
2023/03/28 11:47:15;;;;;;;1.65;1.55;;;11.80;46.50;;;;;;5041010;28;20032;-66
2023/03/28 11:50:01;;;;;;;1.88;0.77;;;11.80;49.70;;;;;;5037779;28;20033;-66
2023/03/28 11:52:54;;;;;;;1.75;0.95;;;11.90;46.70;;;;;;5024267;28;20140;-66
2023/03/28 11:55:31;;;;;;;3.90;0.50;;;12.00;45.20;;;;;;5042463;28;20118;-66
2023/03/28 11:58:19;;;;;;;1.92;1.00;;;12.10;47.20;;;;;;5046376;28;20025;-66
2023/03/28 12:01:05;;;;;;;4.28;1.55;;;12.10;47.00;;;;;;5043508;28;20635;-66
2023/03/28 12:03:54;;;;;;;0.63;0.60;;;11.90;47.40;;;;;;5057060;28;20030;-66
2023/03/28 12:06:40;;;;;;;2.63;0.30;;;11.90;50.50;;;;;;5040161;28;20114;-66
2023/03/28 12:09:33;;;;;;;1.67;0.40;;;11.90;45.10;;;;;;5036195;28;20026;-66
2023/03/28 12:12:07;;;;;;;1.17;0.28;;;11.90;46.80;;;;;;5039530;28;20061;-66
2023/03/28 12:14:51;;;;;;;1.17;0.25;;;12.00;47.90;;;;;;5038596;28;20032;-66
2023/03/28 12:17:48;;;;;;;0.25;0.13;;;12.10;46.00;;;;;;5038274;28;20037;-66
2023/03/28 12:20:27;;;;;;;1.58;0.32;;;12.00;45.10;;;;;;5035764;28;20028;-66
2023/03/28 12:23:00;;;;;;;0.82;0.30;;;12.00;47.90;;;;;;5036315;28;20056;-66
2023/03/28 12:26:17;;;;;;;0.55;0.30;;;11.90;46.40;;;;;;5030750;28;20034;-66
2023/03/28 12:28:50;;;;;;;1.27;0.55;;;12.10;48.60;;;;;;5005848;28;20557;-66
2023/03/28 12:31:23;;;;;;;0.82;0.22;;;12.10;47.30;;;;;;5038640;28;20044;-66
2023/03/28 12:33:54;;;;;;;0.63;0.20;;;12.10;46.40;;;;;;5034595;28;20569;-66
2023/03/28 12:37:11;;;;;;;1.27;0.50;;;12.00;46.00;;;;;;4997897;28;20041;-66
2023/03/28 12:39:49;;;;;;;0.13;0.13;;;11.80;47.40;;;;;;5041789;28;20653;-66
2023/03/28 12:42:20;;;;;;;2.13;0.38;;;11.80;47.80;;;;;;5034848;28;20036;-66
2023/03/28 12:44:59;;;;;;;0.85;0.50;;;11.80;48.60;;;;;;5035498;28;20044;-66
2023/03/28 12:47:30;;;;;;;0.95;0.60;;;11.80;48.20;;;;;;5035065;28;20029;-67
2023/03/28 12:50:00;;;;;;;0.43;0.20;;;11.70;46.80;;;;;;5037168;28;20025;-66
2023/03/28 12:52:31;;;;;;;0.73;0.40;;;11.60;48.60;;;;;;5032783;28;20496;-66
2023/03/28 12:55:07;;;;;;;0.93;0.35;;;11.40;48.20;;;;;;5040821;28;20124;-66
2023/03/28 12:57:47;;;;;;;0.65;0.30;;;11.20;47.20;;;;;;5018157;28;20681;-66
2023/03/28 13:00:48;;;;;;;0.95;0.40;;;11.20;49.30;;;;;;5010141;28;20032;-66
2023/03/28 13:03:58;;;;;;;1.48;0.90;;;11.40;49.10;;;;;;5019054;28;20037;-66
2023/03/28 13:07:05;;;;;;;2.75;0.57;;;11.60;48.60;;;;;;5027888;28;20116;-66
2023/03/28 13:09:39;;;;;;;2.45;0.50;;;11.60;47.80;;;;;;5018632;28;20067;-66
2023/03/28 13:12:20;;;;;;;0.20;0.20;;;11.60;48.00;;;;;;5034997;28;20840;-66
2023/03/28 13:14:59;;;;;;;2.25;0.73;;;11.50;47.20;;;;;;5035771;28;20032;-66
2023/03/28 13:17:27;;;;;;;1.25;0.40;;;11.40;46.60;;;;;;5035872;28;20489;-66
2023/03/28 13:20:05;;;;;;;0.55;0.40;;;11.30;46.10;;;;;;5038899;28;20550;-67
2023/03/28 13:22:35;;;;;;;0.40;0.30;;;11.40;47.70;;;;;;5036352;28;20024;-66
2023/03/28 13:25:20;;;;;;;1.00;1.00;;;11.40;48.60;;;;;;5028139;28;20022;-66
2023/03/28 13:27:48;;;;;;;1.20;0.90;;;11.50;45.70;;;;;;5039319;28;20049;-66
2023/03/28 13:30:24;;;;;;;0.73;0.60;;;11.30;47.80;;;;;;5047492;28;20824;-66
2023/03/28 13:33:00;;;;;;;1.95;1.00;;;11.40;48.20;;;;;;5036871;28;20032;-66
2023/03/28 13:35:41;;;;;;;0.60;0.50;;;11.50;46.60;;;;;;5034759;28;20067;-67
2023/03/28 13:38:26;;;;;;;2.30;1.13;;;11.40;45.40;;;;;;5038597;28;20037;-66
2023/03/28 13:41:08;;;;;;;0.40;0.40;;;11.30;46.60;;;;;;5043045;28;20075;-66
2023/03/28 13:43:54;;;;;;;0.70;0.57;;;11.30;45.10;;;;;;5042398;28;20024;-66